createdAt,value
2019-03-11T00:01:20.750Z,3.27
2019-03-11T00:03:46.975Z,3.70
2019-03-11T00:06:13.501Z,4.53
2019-03-11T00:08:39.766Z,3.50
2019-03-11T00:11:05.990Z,4.47
2019-03-11T00:13:32.261Z,4.80
2019-03-11T00:15:58.513Z,3.42
2019-03-11T00:18:25.083Z,3.77
2019-03-11T00:20:51.301Z,4.00
2019-03-11T00:23:17.564Z,4.65
2019-03-11T00:25:43.809Z,4.70
2019-03-11T00:28:10.042Z,5.47
2019-03-11T00:30:36.307Z,5.45
2019-03-11T00:33:02.552Z,6.00
2019-03-11T00:35:28.787Z,6.78
2019-03-11T00:37:55.059Z,7.40
2019-03-11T00:40:21.282Z,8.35
2019-03-11T00:42:47.584Z,8.15
2019-03-11T00:45:14.511Z,8.58
2019-03-11T00:47:40.765Z,8.10
2019-03-11T00:50:09.011Z,8.23
2019-03-11T00:52:35.280Z,8.10
2019-03-11T00:55:03.113Z,7.40
2019-03-11T00:57:29.352Z,7.15
2019-03-11T00:59:55.614Z,6.47
2019-03-11T01:02:21.874Z,7.03
2019-03-11T01:04:48.100Z,5.65
2019-03-11T01:07:14.354Z,5.67
2019-03-11T01:09:40.604Z,3.95
2019-03-11T01:12:06.869Z,3.22
2019-03-11T01:14:35.592Z,3.60
2019-03-11T01:17:01.149Z,3.55
2019-03-11T01:19:27.746Z,2.87
2019-03-11T01:21:54.028Z,3.90
2019-03-11T01:24:20.241Z,4.05
2019-03-11T01:26:46.506Z,3.87
2019-03-11T01:29:12.746Z,4.50
2019-03-11T01:31:38.954Z,4.50
2019-03-11T01:34:05.241Z,4.37
2019-03-11T01:36:31.752Z,4.40
2019-03-11T01:38:58.389Z,4.87
2019-03-11T01:41:24.631Z,5.10
2019-03-11T01:43:50.878Z,5.92
2019-03-11T01:46:17.493Z,5.22
2019-03-11T01:48:43.824Z,5.97
2019-03-11T01:51:10.081Z,5.80
2019-03-11T01:53:36.298Z,5.53
2019-03-11T01:56:02.614Z,5.40
2019-03-11T01:58:28.850Z,5.55
2019-03-11T02:00:55.283Z,4.55
2019-03-11T02:03:21.911Z,4.80
2019-03-11T02:05:48.440Z,5.00
2019-03-11T02:08:14.821Z,4.62
2019-03-11T02:10:41.092Z,4.90
2019-03-11T02:13:27.198Z,5.20
2019-03-11T02:15:53.426Z,5.60
2019-03-11T02:18:19.651Z,5.10
2019-03-11T02:20:46.002Z,5.00
2019-03-11T02:23:12.229Z,5.20
2019-03-11T02:25:38.463Z,5.20
2019-03-11T02:28:04.703Z,5.62
2019-03-11T02:30:30.928Z,5.30
2019-03-11T02:32:57.158Z,4.83
2019-03-11T02:35:29.522Z,4.67
2019-03-11T02:37:56.067Z,4.83
2019-03-11T02:40:22.392Z,4.53
2019-03-11T02:42:48.652Z,4.30
2019-03-11T02:45:14.877Z,4.85
2019-03-11T02:47:41.112Z,4.37
2019-03-11T02:50:08.651Z,4.37
2019-03-11T02:52:35.019Z,4.40
2019-03-11T02:55:01.342Z,4.45
2019-03-11T02:57:27.883Z,3.85
2019-03-11T02:59:54.147Z,3.67
2019-03-11T03:02:31.909Z,3.65
2019-03-11T03:05:00.044Z,3.12
2019-03-11T03:07:26.285Z,3.60
2019-03-11T03:09:52.518Z,3.45
2019-03-11T03:12:18.769Z,3.25
2019-03-11T03:14:44.997Z,3.02
2019-03-11T03:17:11.529Z,3.90
2019-03-11T03:19:37.754Z,3.10
2019-03-11T03:22:04.012Z,3.67
2019-03-11T03:24:30.228Z,4.00
2019-03-11T03:26:56.446Z,5.28
2019-03-11T03:29:22.705Z,5.17
2019-03-11T03:31:48.934Z,5.85
2019-03-11T03:34:15.161Z,7.00
2019-03-11T03:36:41.424Z,7.72
2019-03-11T03:39:07.850Z,6.90
2019-03-11T03:41:34.180Z,8.55
2019-03-11T03:44:00.839Z,6.97
2019-03-11T03:46:27.049Z,8.48
2019-03-11T03:48:53.435Z,8.20
2019-03-11T03:51:19.745Z,7.55
2019-03-11T03:53:45.972Z,8.23
2019-03-11T03:56:12.226Z,8.13
2019-03-11T03:58:38.462Z,6.90
2019-03-11T04:01:04.721Z,8.33
2019-03-11T04:03:30.919Z,7.25
2019-03-11T04:05:57.147Z,6.75
2019-03-11T04:08:23.414Z,7.15
2019-03-11T04:10:49.631Z,6.75
2019-03-11T04:13:15.878Z,5.67
2019-03-11T04:15:42.481Z,5.20
2019-03-11T04:18:08.702Z,5.55
2019-03-11T04:20:35.044Z,5.58
2019-03-11T04:23:01.257Z,5.12
2019-03-11T04:25:28.617Z,5.35
2019-03-11T04:27:54.940Z,5.47
2019-03-11T04:30:22.761Z,4.72
2019-03-11T04:32:49.013Z,5.10
2019-03-11T04:35:15.587Z,5.60
2019-03-11T04:37:41.951Z,3.92
2019-03-11T04:40:10.675Z,4.72
2019-03-11T04:42:36.931Z,4.95
2019-03-11T04:45:06.073Z,4.65
2019-03-11T04:47:32.310Z,4.45
2019-03-11T04:50:00.212Z,3.65
2019-03-11T04:52:26.679Z,3.90
2019-03-11T04:54:52.890Z,3.65
2019-03-11T04:57:19.236Z,3.25
2019-03-11T04:59:45.452Z,2.65
2019-03-11T05:02:11.687Z,3.20
2019-03-11T05:04:37.907Z,3.02
2019-03-11T05:07:04.150Z,3.40
2019-03-11T05:09:30.359Z,3.62
2019-03-11T05:11:56.590Z,3.27
2019-03-11T05:14:22.808Z,3.25
2019-03-11T05:16:49.071Z,3.20
2019-03-11T05:19:15.663Z,3.27
2019-03-11T05:21:41.902Z,3.40
2019-03-11T05:24:08.228Z,3.15
2019-03-11T05:26:34.464Z,4.05
2019-03-11T05:29:00.690Z,3.17
2019-03-11T05:31:27.319Z,3.35
2019-03-11T05:33:53.559Z,3.30
2019-03-11T05:36:19.972Z,3.60
2019-03-11T05:38:46.518Z,3.70
2019-03-11T05:41:12.797Z,4.50
2019-03-11T05:43:39.009Z,3.40
2019-03-11T05:46:05.378Z,3.35
2019-03-11T05:48:31.614Z,3.10
2019-03-11T05:50:57.835Z,3.17
2019-03-11T05:53:24.079Z,3.30
2019-03-11T05:55:50.625Z,2.30
2019-03-11T05:58:17.165Z,2.35
2019-03-11T06:00:43.714Z,2.70
2019-03-11T06:03:09.940Z,2.35
2019-03-11T06:05:36.482Z,2.40
2019-03-11T06:08:02.910Z,2.50
2019-03-11T06:10:29.172Z,2.83
2019-03-11T06:12:55.376Z,2.50
2019-03-11T06:15:22.060Z,2.50
2019-03-11T06:17:48.461Z,3.22
2019-03-11T06:20:17.950Z,3.35
2019-03-11T06:22:44.488Z,2.98
2019-03-11T06:25:10.850Z,3.25
2019-03-11T06:27:37.087Z,3.47
2019-03-11T06:30:08.150Z,3.33
2019-03-11T06:32:34.380Z,3.52
2019-03-11T06:35:00.615Z,3.40
2019-03-11T06:37:27.285Z,3.55
2019-03-11T06:39:53.918Z,3.30
2019-03-11T06:42:20.151Z,3.92
2019-03-11T06:44:46.398Z,3.85
2019-03-11T06:47:12.746Z,3.67
2019-03-11T06:49:38.994Z,3.45
2019-03-11T06:52:05.574Z,3.58
2019-03-11T06:54:31.887Z,4.20
2019-03-11T06:56:58.095Z,3.35
2019-03-11T06:59:24.335Z,3.70
2019-03-11T07:01:50.547Z,4.05
2019-03-11T07:04:16.796Z,3.45
2019-03-11T07:06:49.391Z,3.70
2019-03-11T07:09:15.735Z,3.72
2019-03-11T07:11:42.358Z,3.70
2019-03-11T07:14:08.653Z,4.67
2019-03-11T07:16:34.858Z,3.72
2019-03-11T07:19:01.073Z,3.90
2019-03-11T07:21:27.310Z,3.22
2019-03-11T07:23:53.936Z,3.72
2019-03-11T07:26:20.176Z,4.20
2019-03-11T07:28:50.842Z,3.35
2019-03-11T07:31:17.211Z,4.15
2019-03-11T07:33:43.748Z,3.60
2019-03-11T07:36:09.951Z,3.50
2019-03-11T07:38:36.530Z,4.03
2019-03-11T07:41:02.898Z,3.58
2019-03-11T07:43:29.478Z,3.60
2019-03-11T07:45:55.720Z,3.70
2019-03-11T07:48:21.964Z,3.27
2019-03-11T07:50:48.593Z,3.00
2019-03-11T07:53:14.912Z,3.12
2019-03-11T07:55:41.132Z,3.55
2019-03-11T07:58:07.358Z,2.92
2019-03-11T08:00:33.664Z,4.28
2019-03-11T08:03:00.023Z,3.37
2019-03-11T08:05:26.568Z,3.52
2019-03-11T08:07:52.925Z,3.10
2019-03-11T08:10:23.249Z,3.15
2019-03-11T08:12:49.783Z,3.60
2019-03-11T08:15:16.111Z,2.98
2019-03-11T08:17:42.443Z,3.40
2019-03-11T08:20:10.383Z,3.42
2019-03-11T08:22:36.605Z,3.42
2019-03-11T08:25:04.949Z,3.30
2019-03-11T08:27:31.171Z,3.00
2019-03-11T08:29:59.494Z,3.22
2019-03-11T08:32:25.442Z,2.90
2019-03-11T08:34:51.671Z,3.35
2019-03-11T08:37:17.896Z,3.37
2019-03-11T08:39:44.161Z,3.20
2019-03-11T08:42:10.430Z,3.22
2019-03-11T08:44:36.679Z,3.00
2019-03-11T08:47:03.007Z,3.35
2019-03-11T08:49:29.236Z,4.00
2019-03-11T08:51:55.768Z,2.87
2019-03-11T08:54:22.118Z,3.15
2019-03-11T08:56:48.363Z,2.83
2019-03-11T08:59:14.584Z,3.00
2019-03-11T09:01:40.911Z,3.00
2019-03-11T09:04:07.204Z,3.58
2019-03-11T09:06:33.499Z,2.80
2019-03-11T09:08:59.679Z,3.15
2019-03-11T09:11:25.897Z,2.80
2019-03-11T09:13:52.555Z,2.62
2019-03-11T09:16:18.776Z,2.95
2019-03-11T09:18:45.011Z,2.70
2019-03-11T09:21:12.106Z,3.45
2019-03-11T09:23:38.339Z,2.72
2019-03-11T09:26:04.596Z,2.77
2019-03-11T09:28:31.212Z,2.60
2019-03-11T09:30:57.613Z,2.62
2019-03-11T09:33:23.856Z,3.00
2019-03-11T09:35:50.120Z,2.70
2019-03-11T09:38:16.356Z,3.20
2019-03-11T09:40:43.823Z,2.72
2019-03-11T09:43:10.059Z,2.80
2019-03-11T09:45:36.603Z,2.92
2019-03-11T09:48:03.152Z,2.80
2019-03-11T09:50:29.435Z,2.60
2019-03-11T09:52:56.042Z,2.25
2019-03-11T09:55:26.920Z,2.98
2019-03-11T09:57:53.135Z,3.65
2019-03-11T10:00:21.886Z,2.75
2019-03-11T10:02:52.676Z,2.20
2019-03-11T10:05:16.287Z,2.85
2019-03-11T10:07:42.623Z,2.80
2019-03-11T10:10:16.794Z,2.87
2019-03-11T10:12:43.338Z,3.20
2019-03-11T10:15:12.759Z,3.02
2019-03-11T10:17:39.048Z,2.90
2019-03-11T10:20:08.994Z,2.80
2019-03-11T10:22:35.521Z,2.37
2019-03-11T10:25:02.476Z,2.72
2019-03-11T10:27:28.851Z,2.33
2019-03-11T10:29:55.177Z,2.27
2019-03-11T10:32:26.207Z,2.50
2019-03-11T10:34:52.444Z,2.40
2019-03-11T10:37:18.693Z,2.10
2019-03-11T10:39:47.703Z,1.92
2019-03-11T10:42:13.108Z,2.58
2019-03-11T10:44:39.685Z,2.15
2019-03-11T10:47:05.909Z,2.08
2019-03-11T10:49:32.440Z,2.27
2019-03-11T10:51:58.711Z,2.33
2019-03-11T10:54:24.969Z,2.25
2019-03-11T10:56:51.223Z,2.17
2019-03-11T10:59:17.460Z,2.37
2019-03-11T11:01:43.921Z,2.30
2019-03-11T11:04:10.175Z,2.30
2019-03-11T11:06:36.419Z,2.70
2019-03-11T11:09:04.861Z,2.90
2019-03-11T11:11:31.460Z,2.03
2019-03-11T11:13:57.725Z,1.90
2019-03-11T11:16:24.034Z,2.20
2019-03-11T11:18:50.277Z,2.05
2019-03-11T11:21:16.509Z,1.52
2019-03-11T11:23:42.731Z,1.70
2019-03-11T11:26:09.002Z,1.97
2019-03-11T11:28:35.322Z,1.70
2019-03-11T11:31:01.551Z,1.90
2019-03-11T11:33:27.791Z,1.67
2019-03-11T11:35:54.020Z,1.70
2019-03-11T11:38:20.271Z,1.67
2019-03-11T11:40:46.514Z,1.80
2019-03-11T11:43:12.790Z,1.50
2019-03-11T11:45:39.374Z,1.50
2019-03-11T11:48:08.096Z,1.80
2019-03-11T11:50:33.646Z,1.70
2019-03-11T11:52:59.858Z,1.67
2019-03-11T11:55:26.196Z,2.00
2019-03-11T11:57:52.579Z,1.67
2019-03-11T12:00:22.707Z,2.30
2019-03-11T12:02:48.926Z,2.53
2019-03-11T12:05:16.092Z,2.70
2019-03-11T12:07:42.451Z,2.75
2019-03-11T12:10:15.195Z,2.80
2019-03-11T12:12:41.419Z,1.95
2019-03-11T12:15:09.272Z,2.30
2019-03-11T12:17:35.488Z,2.17
2019-03-11T12:20:02.164Z,3.07
2019-03-11T12:22:28.371Z,2.60
2019-03-11T12:24:56.185Z,2.23
2019-03-11T12:27:22.984Z,2.03
2019-03-11T12:29:49.451Z,2.00
2019-03-11T12:32:15.779Z,2.70
2019-03-11T12:34:42.488Z,1.90
2019-03-11T12:37:08.764Z,1.80
2019-03-11T12:39:35.077Z,2.33
2019-03-11T12:42:01.362Z,1.80
2019-03-11T12:44:27.564Z,1.60
2019-03-11T12:46:53.935Z,1.45
2019-03-11T12:49:20.151Z,1.20
2019-03-11T12:51:50.138Z,1.30
2019-03-11T12:54:14.449Z,1.70
2019-03-11T12:56:41.017Z,1.30
2019-03-11T12:59:07.575Z,1.60
2019-03-11T13:01:33.795Z,1.40
2019-03-11T13:04:00.319Z,1.97
2019-03-11T13:06:26.499Z,1.90
2019-03-11T13:08:52.759Z,2.00
2019-03-11T13:11:19.000Z,2.40
2019-03-11T13:13:45.240Z,1.53
2019-03-11T13:16:11.476Z,1.53
2019-03-11T13:18:39.687Z,1.60
2019-03-11T13:21:18.387Z,1.60
2019-03-11T13:23:45.008Z,1.80
2019-03-11T13:26:11.348Z,1.60
2019-03-11T13:28:37.852Z,1.57
2019-03-11T13:31:04.109Z,1.73
2019-03-11T13:33:30.330Z,1.60
2019-03-11T13:35:56.854Z,1.83
2019-03-11T13:38:23.483Z,2.13
2019-03-11T13:40:49.777Z,2.20
2019-03-11T13:43:25.479Z,1.70
2019-03-11T13:45:51.724Z,1.73
2019-03-11T13:48:18.230Z,1.70
2019-03-11T13:50:44.475Z,1.80
2019-03-11T13:53:11.094Z,1.67
2019-03-11T13:55:37.641Z,1.80
2019-03-11T13:58:04.166Z,1.50
2019-03-11T14:00:30.716Z,1.70
2019-03-11T14:02:56.959Z,2.00
2019-03-11T14:05:23.192Z,2.00
2019-03-11T14:07:49.436Z,1.33
2019-03-11T14:10:15.880Z,1.70
2019-03-11T14:12:42.283Z,1.20
2019-03-11T14:15:12.067Z,1.50
2019-03-11T14:17:38.301Z,1.50
2019-03-11T14:20:08.215Z,1.30
2019-03-11T14:22:34.867Z,1.87
2019-03-11T14:25:01.215Z,1.62
2019-03-11T14:27:27.439Z,1.40
2019-03-11T14:29:53.776Z,1.50
2019-03-11T14:32:20.387Z,1.82
2019-03-11T14:34:46.643Z,1.65
2019-03-11T14:37:13.427Z,1.52
2019-03-11T14:39:39.691Z,1.60
2019-03-11T14:42:05.935Z,1.55
2019-03-11T14:44:32.582Z,1.47
2019-03-11T14:46:58.910Z,1.33
2019-03-11T14:49:25.520Z,1.50
2019-03-11T14:51:51.773Z,1.80
2019-03-11T14:54:17.999Z,1.30
2019-03-11T14:56:44.258Z,1.67
2019-03-11T14:59:10.478Z,1.30
2019-03-11T15:01:38.092Z,1.20
2019-03-11T15:04:04.335Z,1.10
2019-03-11T15:06:30.703Z,1.00
2019-03-11T15:08:56.964Z,1.50
2019-03-11T15:11:23.176Z,1.20
2019-03-11T15:13:49.417Z,1.20
2019-03-11T15:16:17.445Z,1.10
2019-03-11T15:18:43.899Z,1.52
2019-03-11T15:21:10.126Z,1.30
2019-03-11T15:23:36.379Z,1.47
2019-03-11T15:26:02.812Z,1.40
2019-03-11T15:28:29.038Z,1.30
2019-03-11T15:30:55.274Z,1.50
2019-03-11T15:33:21.521Z,1.50
2019-03-11T15:35:47.747Z,1.50
2019-03-11T15:38:13.990Z,1.40
2019-03-11T15:40:40.255Z,1.50
2019-03-11T15:43:06.544Z,1.50
2019-03-11T15:45:38.567Z,1.40
2019-03-11T15:48:01.121Z,1.40
2019-03-11T15:50:30.222Z,1.30
2019-03-11T15:52:56.843Z,1.80
2019-03-11T15:55:23.015Z,1.25
2019-03-11T15:57:49.243Z,1.00
2019-03-11T16:00:19.828Z,1.30
2019-03-11T16:02:46.277Z,1.22
2019-03-11T16:05:13.210Z,1.30
2019-03-11T16:07:39.473Z,1.20
2019-03-11T16:10:16.680Z,1.45
2019-03-11T16:12:37.473Z,1.45
2019-03-11T16:15:05.823Z,1.80
2019-03-11T16:17:32.063Z,1.77
2019-03-11T16:19:58.302Z,1.75
2019-03-11T16:22:26.300Z,2.27
2019-03-11T16:24:52.587Z,1.90
2019-03-11T16:27:19.955Z,2.33
2019-03-11T16:29:46.099Z,1.90
2019-03-11T16:32:12.470Z,2.33
2019-03-11T16:34:38.711Z,2.50
2019-03-11T16:37:04.960Z,2.37
2019-03-11T16:39:31.190Z,2.30
2019-03-11T16:41:57.644Z,2.70
2019-03-11T16:44:23.863Z,3.12
2019-03-11T16:46:50.112Z,1.77
2019-03-11T16:49:16.330Z,2.25
2019-03-11T16:51:42.596Z,2.30
2019-03-11T16:54:09.203Z,2.60
2019-03-11T16:56:35.435Z,2.52
2019-03-11T16:59:01.700Z,2.70
2019-03-11T17:01:28.032Z,2.80
2019-03-11T17:03:54.262Z,3.33
2019-03-11T17:06:20.864Z,2.80
2019-03-11T17:08:47.107Z,3.00
2019-03-11T17:11:13.644Z,3.17
2019-03-11T17:13:39.901Z,3.40
2019-03-11T17:16:06.128Z,4.87
2019-03-11T17:18:32.374Z,4.10
2019-03-11T17:20:58.612Z,3.12
2019-03-11T17:23:25.013Z,4.15
2019-03-11T17:25:51.250Z,4.20
2019-03-11T17:28:17.512Z,4.60
2019-03-11T17:30:45.019Z,5.08
2019-03-11T17:33:15.772Z,4.60
2019-03-11T17:35:41.375Z,4.30
2019-03-11T17:38:08.083Z,4.78
2019-03-11T17:40:35.034Z,3.60
2019-03-11T17:43:01.306Z,4.20
2019-03-11T17:45:27.538Z,3.60
2019-03-11T17:47:53.980Z,4.62
2019-03-11T17:50:21.314Z,4.33
2019-03-11T17:52:48.072Z,4.78
2019-03-11T17:55:15.408Z,3.05
2019-03-11T17:57:42.174Z,3.58
2019-03-11T18:00:13.858Z,3.95
2019-03-11T18:02:40.202Z,4.30
2019-03-11T18:05:06.644Z,4.40
2019-03-11T18:07:32.907Z,3.85
2019-03-11T18:09:59.247Z,3.60
2019-03-11T18:12:25.507Z,3.87
2019-03-11T18:14:51.740Z,3.47
2019-03-11T18:17:17.979Z,3.85
2019-03-11T18:19:44.219Z,3.50
2019-03-11T18:22:10.751Z,3.85
2019-03-11T18:24:37.002Z,6.50
2019-03-11T18:27:03.288Z,4.50
2019-03-11T18:29:29.657Z,4.55
2019-03-11T18:32:01.836Z,3.47
2019-03-11T18:34:23.931Z,3.52
2019-03-11T18:36:50.225Z,3.40
2019-03-11T18:39:19.073Z,3.83
2019-03-11T18:41:44.543Z,4.00
2019-03-11T18:44:10.772Z,3.92
2019-03-11T18:46:37.018Z,3.55
2019-03-11T18:49:05.152Z,4.40
2019-03-11T18:51:31.425Z,3.62
2019-03-11T18:53:57.652Z,4.65
2019-03-11T18:56:23.904Z,3.95
2019-03-11T18:58:50.130Z,4.50
2019-03-11T19:01:16.441Z,4.00
2019-03-11T19:03:42.668Z,3.95
2019-03-11T19:06:09.117Z,4.40
2019-03-11T19:08:35.386Z,5.50
2019-03-11T19:11:01.705Z,5.05
2019-03-11T19:13:28.061Z,4.80
2019-03-11T19:15:54.683Z,4.25
2019-03-11T19:18:21.099Z,4.50
2019-03-11T19:20:47.334Z,4.35
2019-03-11T19:23:13.608Z,4.72
2019-03-11T19:25:41.634Z,5.00
2019-03-11T19:28:07.889Z,5.03
2019-03-11T19:30:34.298Z,5.92
2019-03-11T19:33:00.490Z,5.78
2019-03-11T19:35:27.259Z,4.90
2019-03-11T19:37:53.698Z,5.20
2019-03-11T19:40:22.150Z,6.05
2019-03-11T19:42:48.693Z,4.97
2019-03-11T19:45:15.612Z,5.40
2019-03-11T19:47:42.301Z,6.58
2019-03-11T19:50:10.850Z,5.95
2019-03-11T19:52:37.419Z,6.12
2019-03-11T19:55:04.425Z,6.37
2019-03-11T19:57:30.680Z,5.78
2019-03-11T19:59:57.019Z,5.30
2019-03-11T20:02:24.349Z,5.28
2019-03-11T20:04:50.848Z,7.37
2019-03-11T20:07:17.115Z,5.75
2019-03-11T20:09:43.428Z,5.12
2019-03-11T20:12:09.805Z,4.62
2019-03-11T20:14:36.121Z,5.10
2019-03-11T20:17:02.475Z,5.10
2019-03-11T20:19:28.754Z,4.92
2019-03-11T20:21:55.084Z,5.78
2019-03-11T20:24:21.261Z,4.33
2019-03-11T20:26:47.830Z,4.58
2019-03-11T20:29:14.300Z,4.20
2019-03-11T20:31:40.569Z,4.90
2019-03-11T20:34:06.827Z,4.58
2019-03-11T20:36:33.027Z,3.72
2019-03-11T20:38:59.341Z,3.75
2019-03-11T20:41:25.508Z,4.12
2019-03-11T20:43:51.996Z,4.05
2019-03-11T20:46:18.249Z,4.05
2019-03-11T20:48:44.797Z,4.40
2019-03-11T20:51:11.081Z,4.05
2019-03-11T20:53:37.292Z,4.72
2019-03-11T20:56:04.646Z,3.90
2019-03-11T20:58:30.933Z,4.10
2019-03-11T21:00:57.831Z,3.80
2019-03-11T21:03:24.078Z,4.20
2019-03-11T21:05:54.108Z,4.45
2019-03-11T21:08:20.349Z,3.83
2019-03-11T21:10:46.679Z,4.08
2019-03-11T21:13:12.951Z,3.72
2019-03-11T21:15:39.569Z,3.77
2019-03-11T21:18:05.889Z,4.05
2019-03-11T21:20:32.178Z,3.10
2019-03-11T21:22:58.416Z,3.17
2019-03-11T21:25:24.757Z,3.30
2019-03-11T21:28:10.883Z,3.20
2019-03-11T21:30:37.207Z,3.10
2019-03-11T21:33:03.596Z,3.33
2019-03-11T21:35:29.750Z,3.30
2019-03-11T21:37:56.061Z,3.30
2019-03-11T21:40:23.102Z,2.90
2019-03-11T21:42:49.721Z,3.55
2019-03-11T21:45:16.725Z,3.30
2019-03-11T21:47:43.069Z,3.52
2019-03-11T21:50:27.116Z,3.25
2019-03-11T21:52:53.279Z,3.02
2019-03-11T21:55:19.663Z,2.90
2019-03-11T21:57:46.159Z,2.72
2019-03-11T22:00:14.819Z,2.85
2019-03-11T22:02:41.040Z,2.90
2019-03-11T22:05:07.489Z,2.77
2019-03-11T22:07:34.040Z,2.92
2019-03-11T22:10:00.383Z,2.83
2019-03-11T22:12:26.823Z,2.92
2019-03-11T22:14:53.340Z,3.00
2019-03-11T22:17:19.594Z,2.55
2019-03-11T22:19:45.826Z,2.35
2019-03-11T22:22:12.086Z,2.60
2019-03-11T22:24:38.308Z,2.75
2019-03-11T22:27:04.588Z,3.33
2019-03-11T22:29:31.138Z,3.00
2019-03-11T22:31:57.396Z,2.77
2019-03-11T22:34:23.623Z,3.10
2019-03-11T22:36:49.856Z,2.58
2019-03-11T22:39:16.454Z,3.08
2019-03-11T22:41:43.001Z,3.02
2019-03-11T22:44:09.274Z,2.70
2019-03-11T22:46:35.505Z,3.05
2019-03-11T22:49:01.746Z,3.25
2019-03-11T22:51:27.975Z,2.98
2019-03-11T22:53:54.325Z,3.20
2019-03-11T22:56:20.551Z,3.35
2019-03-11T22:58:46.767Z,3.55
2019-03-11T23:01:13.323Z,3.95
2019-03-11T23:03:39.664Z,3.92
2019-03-11T23:06:06.302Z,3.77
2019-03-11T23:08:32.531Z,4.20
2019-03-11T23:10:58.866Z,4.00
2019-03-11T23:13:25.126Z,3.62
2019-03-11T23:15:51.355Z,3.62
2019-03-11T23:18:18.390Z,4.35
2019-03-11T23:20:44.629Z,3.80
2019-03-11T23:23:10.925Z,3.42
2019-03-11T23:25:37.154Z,3.35
2019-03-11T23:28:03.538Z,3.65
2019-03-11T23:30:30.024Z,4.55
2019-03-11T23:32:56.561Z,4.80
2019-03-11T23:35:22.817Z,4.03
2019-03-11T23:37:49.042Z,3.20
2019-03-11T23:40:15.655Z,4.25
2019-03-11T23:42:42.045Z,3.40
2019-03-11T23:45:09.491Z,3.52
2019-03-11T23:47:35.719Z,3.15
2019-03-11T23:50:02.831Z,3.35
2019-03-11T23:52:29.051Z,3.37
2019-03-11T23:54:55.275Z,3.15
2019-03-11T23:57:21.558Z,2.90
2019-03-11T23:59:48.053Z,3.40
